Time;durP1;ratioP1;P1;durP2;ratioP2;P2;SDS_P1;SDS_P2;PMS_P1;PMS_P2;Temp;Humidity;BMP_temperature;BMP_pressure;BME280_temperature;BME280_humidity;BME280_pressure;Samples;Min_cycle;Max_cycle;Signal;HPM_P1;HPM_P2
2022/07/31 00:00:41;;;;;;;;;;;;;;;16.73;99.10;99238.06;3056479;19;1163;-53
2022/07/31 00:01:46;;;;;;;;;;;;;;;16.72;99.19;99236.38;3056373;19;1753;-53
2022/07/31 00:02:48;;;;;;;;;;;;;;;16.72;98.98;99236.38;3056773;19;972;-53
2022/07/31 00:03:52;;;;;;;;;;;;;;;16.72;98.79;99241.75;3055621;19;1846;-52
2022/07/31 00:04:54;;;;;;;;;;;;;;;16.71;98.94;99240.06;3056556;19;1689;-53
2022/07/31 00:05:59;;;;;;;;;;;;;;;16.71;98.79;99240.06;3056368;19;979;-54
2022/07/31 00:07:01;;;;;;;;;;;;;;;16.70;98.92;99233.00;3056870;19;1031;-52
2022/07/31 00:08:07;;;;;;;;;;;;;;;16.67;98.91;99238.69;3056388;19;985;-52
2022/07/31 00:09:09;;;;;;;;;;;;;;;16.67;98.78;99238.69;3056299;19;952;-53
2022/07/31 00:10:33;;;;;;;;;;;;;;;16.76;99.34;99237.75;3056450;19;951;-53
2022/07/31 00:11:35;;;;;;;;;;;;;;;16.67;98.80;99233.31;3053297;19;1349;-53
2022/07/31 00:12:39;;;;;;;;;;;;;;;16.65;98.73;99242.59;3048411;19;1363;-52
2022/07/31 00:13:41;;;;;;;;;;;;;;;16.64;98.61;99232.81;3048617;19;1334;-53
2022/07/31 00:15:02;;;;;;;;;;;;;;;16.64;98.55;99228.28;3050458;19;1077;-52
2022/07/31 00:16:04;;;;;;;;;;;;;;;16.63;98.61;99229.28;3051630;19;1067;-53
2022/07/31 00:17:08;;;;;;;;;;;;;;;16.62;98.35;99230.28;3051308;19;1456;-52
2022/07/31 00:18:10;;;;;;;;;;;;;;;16.95;99.10;99233.06;3050405;19;1151;-53
2022/07/31 00:19:16;;;;;;;;;;;;;;;17.16;98.62;99225.31;3054564;19;1167;-52
2022/07/31 00:20:18;;;;;;;;;;;;;;;17.03;99.62;99230.34;3055955;19;1423;-52
2022/07/31 00:21:23;;;;;;;;;;;;;;;16.92;99.62;99229.66;3056435;19;1761;-52
2022/07/31 00:22:25;;;;;;;;;;;;;;;16.92;99.79;99232.38;3056260;19;989;-53
2022/07/31 00:23:30;;;;;;;;;;;;;;;16.95;99.92;99235.75;3055825;19;1828;-53
2022/07/31 00:24:32;;;;;;;;;;;;;;;16.69;100.00;99217.84;3054190;19;1866;-52
2022/07/31 00:25:37;;;;;;;;;;;;;;;16.62;99.59;99224.91;3055068;19;1217;-52
2022/07/31 00:26:39;;;;;;;;;;;;;;;16.59;99.73;99230.56;3056157;19;956;-52
2022/07/31 00:27:46;;;;;;;;;;;;;;;16.58;99.56;99229.72;3054984;19;1166;-52
2022/07/31 00:28:48;;;;;;;;;;;;;;;16.57;99.45;99227.19;3055010;19;1181;-52
2022/07/31 00:29:52;;;;;;;;;;;;;;;16.66;99.58;99228.97;3056374;19;965;-52
2022/07/31 00:30:54;;;;;;;;;;;;;;;16.55;99.34;99234.59;3056292;19;1135;-53
2022/07/31 00:31:58;;;;;;;;;;;;;;;16.54;99.32;99224.84;3056009;19;1043;-51
2022/07/31 00:33:00;;;;;;;;;;;;;;;16.68;99.35;99229.63;3054667;19;1240;-51
2022/07/31 00:34:05;;;;;;;;;;;;;;;16.67;99.65;99222.53;3052107;19;933;-52
2022/07/31 00:35:07;;;;;;;;;;;;;;;16.76;99.69;99221.56;3048944;19;1059;-52
2022/07/31 00:36:12;;;;;;;;;;;;;;;16.77;99.88;99222.41;3048255;19;1235;-52
2022/07/31 00:37:14;;;;;;;;;;;;;;;16.77;100.00;99223.25;3048785;19;1386;-51
2022/07/31 00:38:19;;;;;;;;;;;;;;;16.76;99.93;99218.88;3051392;19;913;-52
2022/07/31 00:39:32;;;;;;;;;;;;;;;16.76;100.00;99216.19;3050995;19;1034;-52
2022/07/31 00:40:34;;;;;;;;;;;;;;;16.71;100.00;99218.53;3050019;19;1622;-52
2022/07/31 00:41:39;;;;;;;;;;;;;;;16.69;100.00;99223.22;3052402;19;1397;-52
2022/07/31 00:42:42;;;;;;;;;;;;;;;16.68;99.98;99221.53;3055909;19;1044;-52
2022/07/31 00:43:47;;;;;;;;;;;;;;;16.71;99.95;99223.06;3055412;19;939;-52
2022/07/31 00:44:49;;;;;;;;;;;;;;;16.69;100.00;99215.13;3054543;19;1841;-53
2022/07/31 00:45:56;;;;;;;;;;;;;;;16.52;99.72;99224.16;3055479;19;900;-52
2022/07/31 00:46:59;;;;;;;;;;;;;;;16.52;99.68;99218.78;3056144;19;1038;-53
2022/07/31 00:48:05;;;;;;;;;;;;;;;16.65;99.78;99213.81;3054180;19;1019;-52
2022/07/31 00:49:08;;;;;;;;;;;;;;;16.67;99.72;99213.63;3054801;19;1092;-53
2022/07/31 00:50:13;;;;;;;;;;;;;;;16.67;99.95;99217.16;3055638;19;1717;-52
2022/07/31 00:51:15;;;;;;;;;;;;;;;16.67;99.77;99209.06;3056068;19;964;-52
2022/07/31 00:52:20;;;;;;;;;;;;;;;16.68;99.78;99213.44;3054583;19;1376;-52
2022/07/31 00:53:22;;;;;;;;;;;;;;;16.67;99.98;99209.06;3054784;19;916;-52
2022/07/31 00:54:26;;;;;;;;;;;;;;;16.67;99.82;99214.44;3054608;19;1664;-52
2022/07/31 00:55:28;;;;;;;;;;;;;;;16.70;99.65;99219.53;3055000;19;1203;-52
2022/07/31 00:56:32;;;;;;;;;;;;;;;16.69;99.76;99209.75;3050246;19;1161;-51
2022/07/31 00:57:34;;;;;;;;;;;;;;;16.71;99.75;99213.13;3046153;19;1009;-52
2022/07/31 00:58:39;;;;;;;;;;;;;;;16.72;99.68;99211.28;3048146;19;960;-52
2022/07/31 00:59:41;;;;;;;;;;;;;;;16.72;99.76;99214.81;3048531;19;1432;-52
2022/07/31 01:00:45;;;;;;;;;;;;;;;16.73;99.64;99216.50;3050215;19;1280;-52
2022/07/31 01:01:47;;;;;;;;;;;;;;;16.73;99.78;99208.44;3049485;19;972;-52
2022/07/31 01:02:52;;;;;;;;;;;;;;;16.73;99.80;99213.81;3049748;19;949;-52
2022/07/31 01:03:54;;;;;;;;;;;;;;;16.72;99.63;99209.44;3051843;19;1222;-52
2022/07/31 01:04:58;;;;;;;;;;;;;;;16.70;99.62;99206.06;3053598;19;1834;-53
2022/07/31 01:06:00;;;;;;;;;;;;;;;16.69;99.69;99204.38;3055738;19;977;-52
2022/07/31 01:07:05;;;;;;;;;;;;;;;16.69;99.77;99201.66;3056144;19;990;-52
2022/07/31 01:08:07;;;;;;;;;;;;;;;16.69;99.83;99200.81;3054905;19;1068;-51
2022/07/31 01:09:13;;;;;;;;;;;;;;;16.69;99.70;99209.75;3054548;19;979;-52
2022/07/31 01:10:22;;;;;;;;;;;;;;;16.65;97.87;99197.66;3055484;19;900;-52
2022/07/31 01:11:29;;;;;;;;;;;;;;;16.66;96.95;99212.78;3055039;19;1145;-52
2022/07/31 01:12:44;;;;;;;;;;;;;;;16.64;96.28;99206.72;3054986;19;973;-52
2022/07/31 01:13:54;;;;;;;;;;;;;;;16.61;95.78;99208.88;3054934;19;945;-53
2022/07/31 01:14:57;;;;;;;;;;;;;;;16.58;96.09;99202.78;3054338;19;930;-52
2022/07/31 01:16:01;;;;;;;;;;;;;;;16.57;97.09;99201.09;3054668;19;2305;-52
2022/07/31 01:17:03;;;;;;;;;;;;;;;16.61;97.21;99209.72;3054875;19;1005;-52
2022/07/31 01:18:08;;;;;;;;;;;;;;;16.61;97.21;99204.31;3054954;19;1058;-54
2022/07/31 01:19:25;;;;;;;;;;;;;;;16.59;97.44;99200.94;3049412;19;1363;-52
2022/07/31 01:20:44;;;;;;;;;;;;;;;16.58;97.49;99204.63;3047582;19;1295;-53
2022/07/31 01:21:51;;;;;;;;;;;;;;;16.56;97.49;99214.72;3047180;19;966;-53
2022/07/31 01:23:05;;;;;;;;;;;;;;;16.52;97.39;99208.00;3049346;19;1253;-54
2022/07/31 01:24:23;;;;;;;;;;;;;;;16.50;97.50;99200.09;3049995;19;999;-54
2022/07/31 01:25:37;;;;;;;;;;;;;;;16.49;97.49;99205.63;3047877;19;1859;-53
2022/07/31 01:26:58;;;;;;;;;;;;;;;16.49;97.68;99192.16;3054410;19;1273;-54
2022/07/31 01:28:09;;;;;;;;;;;;;;;16.47;97.47;99194.19;3054378;19;968;-53
2022/07/31 01:29:31;;;;;;;;;;;;;;;16.49;97.43;99192.16;3054550;19;1203;-52
2022/07/31 01:30:44;;;;;;;;;;;;;;;16.49;97.39;99186.78;3053972;19;996;-55
2022/07/31 01:31:50;;;;;;;;;;;;;;;16.47;97.30;99195.03;3054524;19;933;-53
2022/07/31 01:32:51;;;;;;;;;;;;;;;16.47;97.26;99196.88;3054756;19;997;-54
2022/07/31 01:34:07;;;;;;;;;;;;;;;16.48;97.14;99187.78;3053669;19;1164;-54
2022/07/31 01:35:09;;;;;;;;;;;;;;;16.46;97.31;99187.94;3054427;19;1090;-52
2022/07/31 01:36:15;;;;;;;;;;;;;;;16.46;96.99;99179.03;3054503;19;1772;-52
2022/07/31 01:37:23;;;;;;;;;;;;;;;16.45;97.13;99174.63;3054874;19;1089;-53
2022/07/31 01:38:26;;;;;;;;;;;;;;;16.44;97.02;99178.34;3054563;19;984;-53
2022/07/31 01:39:31;;;;;;;;;;;;;;;16.42;96.99;99177.69;3053822;19;1827;-53
2022/07/31 01:40:35;;;;;;;;;;;;;;;16.42;97.07;99185.75;3054763;19;968;-53
2022/07/31 01:41:42;;;;;;;;;;;;;;;16.40;96.94;99174.31;3049092;19;1212;-52
2022/07/31 01:42:47;;;;;;;;;;;;;;;16.39;96.94;99175.31;3047631;19;1045;-52
2022/07/31 01:43:52;;;;;;;;;;;;;;;16.39;96.68;99169.94;3046754;19;935;-53
2022/07/31 01:44:59;;;;;;;;;;;;;;;16.39;96.62;99167.22;3046814;19;1426;-53
2022/07/31 01:46:01;;;;;;;;;;;;;;;16.39;96.65;99172.63;3049449;19;976;-54
2022/07/31 01:47:06;;;;;;;;;;;;;;;16.37;96.50;99169.25;3048839;19;1400;-53
2022/07/31 01:48:13;;;;;;;;;;;;;;;16.36;96.56;99164.84;3048528;19;1735;-54
2022/07/31 01:49:17;;;;;;;;;;;;;;;16.34;96.44;99161.47;3053019;19;996;-53
2022/07/31 01:50:20;;;;;;;;;;;;;;;16.34;96.31;99164.16;3053652;19;1019;-53
2022/07/31 01:51:45;;;;;;;;;;;;;;;16.32;96.22;99158.94;3054778;19;1819;-53
2022/07/31 01:52:47;;;;;;;;;;;;;;;16.29;96.04;99159.31;3054077;19;981;-53
2022/07/31 01:53:53;;;;;;;;;;;;;;;16.30;96.18;99150.19;3053491;19;977;-52
2022/07/31 01:54:55;;;;;;;;;;;;;;;16.29;96.04;99145.00;3053619;19;981;-53
2022/07/31 01:56:00;;;;;;;;;;;;;;;16.29;95.99;99150.38;3054455;19;963;-53
2022/07/31 01:57:07;;;;;;;;;;;;;;;16.30;95.81;99149.38;3054153;19;1184;-53
2022/07/31 01:58:16;;;;;;;;;;;;;;;16.30;95.68;99154.75;3053732;19;1098;-53
2022/07/31 01:59:18;;;;;;;;;;;;;;;16.28;95.43;99144.16;3054121;19;962;-53
2022/07/31 02:00:46;;;;;;;;;;;;;;;16.29;95.46;99142.31;3053535;19;1056;-53
2022/07/31 02:01:48;;;;;;;;;;;;;;;16.29;95.34;99155.75;3055082;19;1012;-52
2022/07/31 02:02:55;;;;;;;;;;;;;;;16.29;95.28;99148.53;3053738;19;988;-54
2022/07/31 02:04:03;;;;;;;;;;;;;;;16.29;95.03;99158.47;3051314;19;928;-53
2022/07/31 02:05:09;;;;;;;;;;;;;;;16.28;95.18;99151.38;3047179;19;1608;-54
2022/07/31 02:06:12;;;;;;;;;;;;;;;16.26;94.90;99159.63;3045894;19;1916;-54
2022/07/31 02:07:17;;;;;;;;;;;;;;;16.27;94.93;99155.06;3046720;19;1666;-53
2022/07/31 02:08:19;;;;;;;;;;;;;;;16.26;94.54;99153.38;3047322;19;1003;-54
2022/07/31 02:09:29;;;;;;;;;;;;;;;16.27;94.54;99155.06;3048746;19;1007;-54
2022/07/31 02:10:31;;;;;;;;;;;;;;;16.29;94.23;99155.75;3048534;19;981;-56
2022/07/31 02:11:36;;;;;;;;;;;;;;;16.27;94.05;99153.22;3051769;19;949;-54
2022/07/31 02:12:55;;;;;;;;;;;;;;;16.27;93.90;99155.06;3054280;19;1039;-54
2022/07/31 02:13:59;;;;;;;;;;;;;;;16.28;94.17;99163.00;3055129;19;1029;-55
2022/07/31 02:15:05;;;;;;;;;;;;;;;16.28;94.05;99148.69;3054106;19;1007;-54
2022/07/31 02:16:10;;;;;;;;;;;;;;;16.26;93.67;99159.63;3054052;19;1090;-54
2022/07/31 02:17:12;;;;;;;;;;;;;;;16.27;93.67;99152.38;3053908;19;957;-53
2022/07/31 02:18:54;;;;;;;;;;;;;;;16.27;93.28;99155.91;3053316;19;1091;-53
2022/07/31 02:19:57;;;;;;;;;;;;;;;16.28;93.35;99156.78;3054147;19;1011;-53
2022/07/31 02:21:04;;;;;;;;;;;;;;;16.27;93.13;99139.78;3053971;19;932;-53
2022/07/31 02:22:06;;;;;;;;;;;;;;;16.28;93.02;99151.38;3053456;19;925;-54
2022/07/31 02:23:10;;;;;;;;;;;;;;;16.29;92.88;99153.06;3053559;19;911;-54
2022/07/31 02:24:12;;;;;;;;;;;;;;;16.30;92.82;99144.81;3054183;19;1033;-53
2022/07/31 02:25:17;;;;;;;;;;;;;;;16.31;92.73;99142.97;3053310;19;960;-53
2022/07/31 02:26:19;;;;;;;;;;;;;;;16.32;92.72;99144.66;3052403;19;1853;-53
2022/07/31 02:27:23;;;;;;;;;;;;;;;16.33;92.74;99149.88;3046529;19;1253;-53
2022/07/31 02:28:46;;;;;;;;;;;;;;;16.37;92.66;99150.41;3046065;19;1493;-56
2022/07/31 02:29:51;;;;;;;;;;;;;;;16.37;92.57;99155.78;3046777;19;1004;-54
2022/07/31 02:30:52;;;;;;;;;;;;;;;16.37;92.51;99153.09;3048840;19;944;-55
2022/07/31 02:31:58;;;;;;;;;;;;;;;16.37;92.60;99155.78;3048896;19;1530;-53
2022/07/31 02:33:13;;;;;;;;;;;;;;;16.36;92.45;99156.78;3048004;19;1060;-51
2022/07/31 02:34:19;;;;;;;;;;;;;;;16.36;92.53;99159.47;3051837;19;1195;-53
2022/07/31 02:35:30;;;;;;;;;;;;;;;16.35;92.37;99153.25;3053083;19;1012;-56
2022/07/31 02:36:34;;;;;;;;;;;;;;;16.36;92.61;99159.47;3053502;19;934;-56
2022/07/31 02:37:36;;;;;;;;;;;;;;;16.34;92.70;99159.63;3052945;19;945;-56
2022/07/31 02:38:41;;;;;;;;;;;;;;;16.33;92.57;99159.78;3053529;19;1647;-53
2022/07/31 02:39:43;;;;;;;;;;;;;;;16.27;92.70;99172.06;3053365;19;984;-52
2022/07/31 02:42:09;;;;;;;;;;;;;;;16.08;88.68;99142.72;3053451;19;1823;-54
2022/07/31 02:43:11;;;;;;;;;;;;;;;16.09;87.12;99150.63;3057356;19;935;-58
2022/07/31 02:44:18;;;;;;;;;;;;;;;16.11;85.79;99150.47;3056716;19;1063;-55
2022/07/31 02:45:27;;;;;;;;;;;;;;;16.09;85.01;99147.09;3055689;19;893;-53
2022/07/31 02:46:32;;;;;;;;;;;;;;;16.08;84.35;99135.47;3055230;19;1885;-61
2022/07/31 02:47:34;;;;;;;;;;;;;;;16.10;83.46;99136.16;3055458;19;989;-65
2022/07/31 02:48:40;;;;;;;;;;;;;;;16.10;83.00;99138.84;3055957;19;1166;-54
2022/07/31 02:49:44;;;;;;;;;;;;;;;16.10;82.79;99143.41;3055368;19;1024;-62
2022/07/31 02:50:48;;;;;;;;;;;;;;;16.11;82.65;99143.25;3055690;19;980;-57
2022/07/31 02:51:51;;;;;;;;;;;;;;;16.13;82.36;99143.94;3055514;19;1020;-65
2022/07/31 02:52:55;;;;;;;;;;;;;;;16.15;82.05;99158.06;3055494;19;1692;-55
2022/07/31 02:53:57;;;;;;;;;;;;;;;16.15;81.77;99147.31;3055559;19;1047;-57
2022/07/31 02:55:03;;;;;;;;;;;;;;;16.15;81.55;99141.91;3056024;19;956;-54
2022/07/31 02:56:05;;;;;;;;;;;;;;;16.16;81.70;99148.16;3055651;19;948;-53
2022/07/31 02:57:11;;;;;;;;;;;;;;;16.17;81.47;99145.28;3055757;19;972;-52
2022/07/31 02:58:13;;;;;;;;;;;;;;;16.19;81.54;99142.41;3055620;19;1064;-54
2022/07/31 02:59:21;;;;;;;;;;;;;;;16.20;81.67;99139.56;3055730;19;1285;-55
2022/07/31 03:00:33;;;;;;;;;;;;;;;16.20;81.77;99142.25;3055452;19;881;-55
2022/07/31 03:01:38;;;;;;;;;;;;;;;16.21;81.81;99143.94;3051430;19;1876;-53
2022/07/31 03:02:41;;;;;;;;;;;;;;;16.23;82.26;99142.94;3053205;19;1096;-54
2022/07/31 03:03:45;;;;;;;;;;;;;;;16.23;82.57;99137.56;3052727;19;1003;-54
2022/07/31 03:04:47;;;;;;;;;;;;;;;16.23;83.02;99129.47;3045826;19;1402;-54
2022/07/31 03:05:52;;;;;;;;;;;;;;;16.23;83.33;99143.78;3046130;19;1701;-55
2022/07/31 03:06:53;;;;;;;;;;;;;;;16.24;84.11;99141.94;3044347;19;1880;-55
2022/07/31 03:07:58;;;;;;;;;;;;;;;16.23;84.49;99129.47;3047382;19;960;-54
2022/07/31 03:09:00;;;;;;;;;;;;;;;16.24;84.87;99134.72;3047996;19;1186;-54
2022/07/31 03:10:06;;;;;;;;;;;;;;;16.23;85.24;99133.03;3047783;19;1075;-53
2022/07/31 03:11:34;;;;;;;;;;;;;;;16.26;86.02;99113.00;3050578;19;1472;-54
2022/07/31 03:12:39;;;;;;;;;;;;;;;16.27;86.79;99109.31;3053070;19;1031;-53
2022/07/31 03:13:44;;;;;;;;;;;;;;;16.26;87.77;99116.56;3053458;19;1041;-54
2022/07/31 03:14:46;;;;;;;;;;;;;;;16.26;88.75;99104.94;3052459;19;1701;-56
2022/07/31 03:15:51;;;;;;;;;;;;;;;16.27;89.54;99096.69;3053463;19;922;-55
2022/07/31 03:16:53;;;;;;;;;;;;;;;16.26;90.99;99105.78;3053395;19;1103;-54
2022/07/31 03:17:57;;;;;;;;;;;;;;;16.25;92.33;99104.09;3052844;19;974;-53
2022/07/31 03:19:10;;;;;;;;;;;;;;;16.27;94.05;99103.94;3053230;19;1004;-55
2022/07/31 03:20:12;;;;;;;;;;;;;;;16.29;94.97;99107.31;3051423;19;943;-54
2022/07/31 03:21:17;;;;;;;;;;;;;;;16.28;96.10;99092.16;3051765;19;1682;-55
2022/07/31 03:22:19;;;;;;;;;;;;;;;16.29;97.52;99094.69;3053269;19;952;-53
2022/07/31 03:23:24;;;;;;;;;;;;;;;16.28;99.23;99089.47;3052925;19;1684;-54
2022/07/31 03:24:32;;;;;;;;;;;;;;;16.28;100.00;99082.25;3052761;19;1478;-55
2022/07/31 03:25:36;;;;;;;;;;;;;;;16.29;100.00;99091.16;3053172;19;945;-57
2022/07/31 03:26:38;;;;;;;;;;;;;;;16.29;100.00;99077.69;3048503;19;1856;-56
2022/07/31 03:27:43;;;;;;;;;;;;;;;16.30;100.00;99079.38;3046142;19;929;-55
2022/07/31 03:29:01;;;;;;;;;;;;;;;16.30;100.00;99079.38;3047073;19;1068;-57
2022/07/31 03:30:03;;;;;;;;;;;;;;;16.31;100.00;99081.03;3046926;19;916;-55
2022/07/31 03:31:09;;;;;;;;;;;;;;;16.29;100.00;99072.31;3048292;19;988;-56
2022/07/31 03:32:11;;;;;;;;;;;;;;;16.29;100.00;99077.69;3048794;19;933;-55
2022/07/31 03:33:15;;;;;;;;;;;;;;;16.30;100.00;99079.38;3047373;19;1638;-56
2022/07/31 03:34:17;;;;;;;;;;;;;;;16.29;100.00;99077.69;3052196;19;999;-55
2022/07/31 03:35:22;;;;;;;;;;;;;;;16.30;100.00;99071.31;3052733;19;1793;-56
2022/07/31 03:36:29;;;;;;;;;;;;;;;16.32;100.00;99071.97;3052889;19;1168;-55
2022/07/31 03:37:34;;;;;;;;;;;;;;;16.34;100.00;99069.94;3052529;19;985;-56
2022/07/31 03:38:36;;;;;;;;;;;;;;;16.33;100.00;99070.94;3052864;19;1688;-56
2022/07/31 03:39:46;;;;;;;;;;;;;;;16.33;100.00;99070.94;3052325;19;1136;-55
2022/07/31 03:40:48;;;;;;;;;;;;;;;16.34;100.00;99070.78;3052948;19;899;-55
2022/07/31 03:41:53;;;;;;;;;;;;;;;16.34;100.00;99059.19;3051704;19;1491;-55
2022/07/31 03:42:55;;;;;;;;;;;;;;;16.34;100.00;99053.78;3053218;19;994;-54
2022/07/31 03:43:59;;;;;;;;;;;;;;;16.35;100.00;99060.88;3052915;19;1645;-55
2022/07/31 03:45:02;;;;;;;;;;;;;;;16.34;100.00;99053.78;3052670;19;1018;-54
2022/07/31 03:46:07;;;;;;;;;;;;;;;16.37;100.00;99057.00;3052716;19;1617;-55
2022/07/31 03:47:09;;;;;;;;;;;;;;;16.37;100.00;99065.09;3052592;19;1846;-56
2022/07/31 03:48:13;;;;;;;;;;;;;;;16.36;100.00;99067.94;3052972;19;1195;-55
2022/07/31 03:49:16;;;;;;;;;;;;;;;16.36;100.00;99154.94;3048133;19;957;-55
2022/07/31 03:50:21;;;;;;;;;;;;;;;16.38;100.00;99152.09;3046468;19;1081;-55
2022/07/31 03:51:25;;;;;;;;;;;;;;;16.38;100.00;99157.47;3047037;19;1009;-55
2022/07/31 03:52:28;;;;;;;;;;;;;;;16.39;100.00;99154.63;3047368;19;938;-54
2022/07/31 03:53:32;;;;;;;;;;;;;;;16.39;100.00;99153.78;3048301;19;1034;-56
2022/07/31 03:54:34;;;;;;;;;;;;;;;16.40;100.00;99145.53;3047951;19;948;-55
2022/07/31 03:55:50;;;;;;;;;;;;;;;16.42;100.00;99148.88;3048579;19;925;-55
2022/07/31 03:56:53;;;;;;;;;;;;;;;16.42;100.00;99261.97;3052476;19;886;-54
2022/07/31 03:57:58;;;;;;;;;;;;;;;16.41;100.00;99265.69;3053680;19;1039;-56
2022/07/31 03:59:01;;;;;;;;;;;;;;;16.42;100.00;99272.75;3052669;19;1225;-56
2022/07/31 04:00:07;;;;;;;;;;;;;;;16.42;100.00;99275.44;3052942;19;1673;-55
2022/07/31 04:01:17;;;;;;;;;;;;;;;16.43;100.00;99262.81;3053648;19;878;-56
2022/07/31 04:02:28;;;;;;;;;;;;;;;16.44;100.00;99269.88;3053082;19;1046;-55
2022/07/31 04:03:40;;;;;;;;;;;;;;;16.42;100.00;99261.16;3052827;19;1274;-55
2022/07/31 04:05:04;;;;;;;;;;;;;;;16.44;100.00;99253.72;3052925;19;972;-55
2022/07/31 04:06:12;;;;;;;;;;;;;;;16.46;100.00;99230.19;3053263;19;1378;-54
2022/07/31 04:07:16;;;;;;;;;;;;;;;16.46;100.00;99222.09;3052219;19;1877;-54
2022/07/31 04:08:18;;;;;;;;;;;;;;;16.46;100.00;99214.88;3052810;19;1134;-55
2022/07/31 04:09:22;;;;;;;;;;;;;;;16.46;100.00;99204.09;3053125;19;1102;-55
2022/07/31 04:10:27;;;;;;;;;;;;;;;16.47;100.00;99204.94;3053161;19;1003;-55
2022/07/31 04:11:29;;;;;;;;;;;;;;;16.48;100.00;99206.63;3050567;19;1411;-54
2022/07/31 04:12:34;;;;;;;;;;;;;;;16.47;100.00;99204.94;3046014;19;1235;-55
2022/07/31 04:13:36;;;;;;;;;;;;;;;16.48;100.00;99209.31;3045992;19;1015;-55
2022/07/31 04:14:41;;;;;;;;;;;;;;;16.49;100.00;99201.09;3046583;19;1012;-54
2022/07/31 04:15:42;;;;;;;;;;;;;;;16.50;100.00;99201.94;3048037;19;809;-55
2022/07/31 04:16:47;;;;;;;;;;;;;;;16.47;100.00;99203.09;3047735;19;1021;-55
2022/07/31 04:17:51;;;;;;;;;;;;;;;16.48;100.00;99191.31;3047975;19;986;-55
2022/07/31 04:18:59;;;;;;;;;;;;;;;16.49;100.00;99186.78;3050049;19;1678;-55
2022/07/31 04:20:04;;;;;;;;;;;;;;;16.48;100.00;99174.31;3052511;19;1008;-55
2022/07/31 04:21:07;;;;;;;;;;;;;;;16.48;100.00;99179.72;3052629;19;1187;-55
2022/07/31 04:22:11;;;;;;;;;;;;;;;16.47;100.00;99181.56;3052720;19;925;-54
2022/07/31 04:23:16;;;;;;;;;;;;;;;16.48;100.00;99169.78;3052797;19;964;-54
2022/07/31 04:24:49;;;;;;;;;;;;;;;16.48;100.00;99163.53;3052277;19;1084;-55
2022/07/31 04:26:23;;;;;;;;;;;;;;;16.48;100.00;99160.84;3053468;19;987;-54
2022/07/31 04:27:36;;;;;;;;;;;;;;;16.47;100.00;99162.72;3052768;19;1837;-54
2022/07/31 04:28:52;;;;;;;;;;;;;;;16.45;100.00;99170.09;3052431;19;1003;-56
2022/07/31 04:29:56;;;;;;;;;;;;;;;16.46;100.00;99165.56;3052590;19;1102;-56
2022/07/31 04:31:00;;;;;;;;;;;;;;;16.46;100.00;99160.16;3052234;19;1767;-54
2022/07/31 04:32:05;;;;;;;;;;;;;;;16.47;100.00;99153.78;3054710;19;1199;-54
2022/07/31 04:33:17;;;;;;;;;;;;;;;16.47;100.00;99172.63;3055405;19;1053;-55
2022/07/31 04:34:18;;;;;;;;;;;;;;;16.46;100.00;99160.16;3051288;19;1107;-55
2022/07/31 04:35:23;;;;;;;;;;;;;;;16.47;100.00;99151.09;3047412;19;1791;-52
2022/07/31 04:36:25;;;;;;;;;;;;;;;16.47;100.00;99161.84;3047089;19;1335;-52
2022/07/31 04:37:34;;;;;;;;;;;;;;;16.46;100.00;99154.78;3048301;19;1112;-54
2022/07/31 04:38:37;;;;;;;;;;;;;;;16.46;100.00;99149.41;3049122;19;984;-59
2022/07/31 04:39:41;;;;;;;;;;;;;;;16.44;100.00;99151.41;3049236;19;1377;-53
2022/07/31 04:40:43;;;;;;;;;;;;;;;16.44;100.00;99151.41;3049077;19;1436;-54
2022/07/31 04:41:48;;;;;;;;;;;;;;;16.40;100.00;99148.22;3051867;19;1059;-54
2022/07/31 04:42:50;;;;;;;;;;;;;;;16.37;100.00;99140.47;3054496;19;1328;-57
2022/07/31 04:43:56;;;;;;;;;;;;;;;16.33;100.00;99149.88;3054220;19;1692;-51
2022/07/31 04:44:58;;;;;;;;;;;;;;;16.34;100.00;99146.16;3054544;19;945;-51
2022/07/31 04:46:03;;;;;;;;;;;;;;;16.40;100.00;99139.31;3054874;19;1064;-55
2022/07/31 04:47:18;;;;;;;;;;;;;;;16.41;100.00;99154.44;3055354;19;1125;-54
2022/07/31 04:48:26;;;;;;;;;;;;;;;16.40;100.00;99139.31;3053317;19;1850;-54
2022/07/31 04:49:29;;;;;;;;;;;;;;;16.41;100.00;99146.38;3055234;19;869;-62
2022/07/31 04:50:34;;;;;;;;;;;;;;;16.40;100.00;99139.31;3054307;19;929;-55
2022/07/31 04:51:36;;;;;;;;;;;;;;;16.34;100.00;99140.78;3054395;19;893;-59
2022/07/31 04:52:40;;;;;;;;;;;;;;;16.35;100.00;99131.72;3054873;19;989;-55
2022/07/31 04:53:46;;;;;;;;;;;;;;;16.36;100.00;99129.88;3054779;19;922;-55
2022/07/31 04:54:50;;;;;;;;;;;;;;;16.78;100.00;99117.19;3054964;19;1038;-56
2022/07/31 04:57:11;;;;;;;;;;;;;;;21.05;100.00;99124.22;3047789;19;1329;-56
2022/07/31 04:58:13;;;;;;;;;;;;;;;17.55;100.00;99133.78;3047680;19;1065;-54
2022/07/31 04:59:19;;;;;;;;;;;;;;;16.87;100.00;99121.56;3047038;19;1242;-54
2022/07/31 05:00:21;;;;;;;;;;;;;;;16.72;100.00;99122.38;3049951;19;1210;-56
2022/07/31 05:01:26;;;;;;;;;;;;;;;16.63;100.00;99126.09;3051631;19;1361;-54
2022/07/31 05:02:28;;;;;;;;;;;;;;;16.61;100.00;99120.81;3051414;19;1000;-54
2022/07/31 05:03:33;;;;;;;;;;;;;;;16.58;100.00;99122.00;3050129;19;1280;-54
2022/07/31 05:04:37;;;;;;;;;;;;;;;16.61;100.00;99114.59;3055044;19;1263;-56
2022/07/31 05:05:44;;;;;;;;;;;;;;;16.63;100.00;99101.84;3054769;19;975;-54
2022/07/31 05:06:49;;;;;;;;;;;;;;;16.62;100.00;99106.38;3054868;19;996;-55
2022/07/31 05:07:52;;;;;;;;;;;;;;;16.66;100.00;99110.44;3054500;19;1852;-55
2022/07/31 05:09:06;;;;;;;;;;;;;;;16.67;100.00;99098.63;3054999;19;1095;-52
2022/07/31 05:11:21;;;;;;;;;;;;;;;16.67;100.00;99095.94;3054948;19;1113;-58
2022/07/31 05:11:37;;;;;;;;;;;;;;;16.64;100.00;99096.28;3053947;19;1769;-56
2022/07/31 05:12:38;;;;;;;;;;;;;;;16.66;100.00;99096.97;3054193;19;1050;-55
2022/07/31 05:13:43;;;;;;;;;;;;;;;16.68;100.00;99097.63;3054839;19;1051;-57
2022/07/31 05:14:47;;;;;;;;;;;;;;;16.67;100.00;99098.63;3055404;19;1019;-54
2022/07/31 05:15:49;;;;;;;;;;;;;;;16.66;100.00;99094.28;3054683;19;1274;-54
2022/07/31 05:16:54;;;;;;;;;;;;;;;16.67;100.00;99093.25;3054744;19;1057;-55
2022/07/31 05:17:56;;;;;;;;;;;;;;;16.67;100.00;99090.53;3054511;19;1074;-54
2022/07/31 05:19:32;;;;;;;;;;;;;;;16.64;100.00;99088.22;3049697;19;1227;-56
2022/07/31 05:20:53;;;;;;;;;;;;;;;16.62;100.00;99090.22;3048391;19;1032;-54
2022/07/31 05:22:06;;;;;;;;;;;;;;;16.68;100.00;99089.53;3048151;19;1087;-54
2022/07/31 05:23:40;;;;;;;;;;;;;;;16.61;100.00;99082.28;3049733;19;1214;-54
2022/07/31 05:24:52;;;;;;;;;;;;;;;16.59;100.00;99095.91;3050984;19;1694;-55
2022/07/31 05:25:55;;;;;;;;;;;;;;;16.57;100.00;99087.16;3050225;19;1203;-54
2022/07/31 05:26:59;;;;;;;;;;;;;;;16.60;100.00;99084.13;3054706;19;967;-53
2022/07/31 05:28:01;;;;;;;;;;;;;;;16.60;100.00;99089.50;3054988;19;1139;-53
2022/07/31 05:29:06;;;;;;;;;;;;;;;16.58;100.00;99083.44;3053797;19;1853;-53
2022/07/31 05:30:09;;;;;;;;;;;;;;;16.60;100.00;99085.97;3054560;19;1145;-53
2022/07/31 05:31:14;;;;;;;;;;;;;;;16.61;100.00;99075.03;3054407;19;1671;-54
2022/07/31 05:32:18;;;;;;;;;;;;;;;16.61;100.00;99088.50;3054028;19;1121;-55
2022/07/31 05:33:20;;;;;;;;;;;;;;;16.64;100.00;99087.38;3054891;19;1079;-54
2022/07/31 05:34:25;;;;;;;;;;;;;;;16.63;100.00;99086.53;3054490;19;1688;-55
2022/07/31 05:35:28;;;;;;;;;;;;;;;16.69;100.00;99085.84;3054754;19;1712;-53
2022/07/31 05:36:32;;;;;;;;;;;;;;;16.63;100.00;99075.75;3054213;19;1607;-54
2022/07/31 05:37:34;;;;;;;;;;;;;;;16.63;100.00;99081.13;3054611;19;1068;-53
2022/07/31 05:38:40;;;;;;;;;;;;;;;16.67;100.00;99082.47;3054576;19;889;-55
2022/07/31 05:39:50;;;;;;;;;;;;;;;16.64;100.00;99080.13;3054483;19;1084;-56
2022/07/31 05:41:24;;;;;;;;;;;;;;;16.67;100.00;99082.47;3052368;19;1128;-55
2022/07/31 05:42:47;;;;;;;;;;;;;;;16.71;100.00;99078.44;3047847;19;1129;-54
2022/07/31 05:43:59;;;;;;;;;;;;;;;16.74;100.00;99083.50;3049249;19;933;-54
2022/07/31 05:45:09;;;;;;;;;;;;;;;16.75;100.00;99084.34;3049339;19;952;-55
2022/07/31 05:46:12;;;;;;;;;;;;;;;16.75;100.00;99079.78;3050598;19;971;-53
2022/07/31 05:47:17;;;;;;;;;;;;;;;16.69;100.00;99080.44;3049496;19;980;-53
2022/07/31 05:48:19;;;;;;;;;;;;;;;16.68;100.00;99084.16;3050104;19;837;-54
2022/07/31 05:49:25;;;;;;;;;;;;;;;16.65;100.00;99076.44;3049935;19;1860;-55
2022/07/31 05:50:29;;;;;;;;;;;;;;;16.68;100.00;99076.06;3054073;19;1529;-54
2022/07/31 05:51:33;;;;;;;;;;;;;;;16.68;100.00;99084.16;3054193;19;992;-58